Time;durP1;ratioP1;P1;durP2;ratioP2;P2;SDS_P1;SDS_P2;PMS_P1;PMS_P2;Temp;Humidity;BMP_temperature;BMP_pressure;BME280_temperature;BME280_humidity;BME280_pressure;Samples;Min_cycle;Max_cycle;Signal;HPM_P1;HPM_P2
2024/01/04 00:00:29;;;;;;;5.20;0.50;;;9.50;99.90;;;;;;5037403;28;20017;-87
2024/01/04 00:02:55;;;;;;;1.33;0.55;;;9.50;99.90;;;;;;5041051;28;20112;-87
2024/01/04 00:05:21;;;;;;;2.80;0.93;;;9.50;99.90;;;;;;5045013;28;20056;-88
2024/01/04 00:07:46;;;;;;;1.38;0.80;;;9.60;99.90;;;;;;5049237;28;20195;-87
2024/01/04 00:10:13;;;;;;;2.35;0.90;;;9.60;99.90;;;;;;5040410;28;20021;-88
2024/01/04 00:12:39;;;;;;;1.85;0.70;;;9.50;99.90;;;;;;5039296;28;20070;-89
2024/01/04 00:15:05;;;;;;;0.93;0.50;;;9.60;99.90;;;;;;5044866;28;20021;-89
2024/01/04 00:17:31;;;;;;;1.02;0.77;;;9.50;99.90;;;;;;5045004;28;20032;-87
2024/01/04 00:19:57;;;;;;;0.45;0.45;;;9.60;99.90;;;;;;5040775;28;20395;-87
2024/01/04 00:22:22;;;;;;;1.00;0.65;;;9.60;99.90;;;;;;5038679;28;20134;-87
2024/01/04 00:24:48;;;;;;;0.77;0.70;;;9.60;99.90;;;;;;5041698;28;20478;-88
2024/01/04 00:27:14;;;;;;;1.45;0.80;;;9.50;99.90;;;;;;5045030;28;20033;-88
2024/01/04 00:29:43;;;;;;;2.22;0.80;;;9.50;99.90;;;;;;5050492;28;20025;-87
2024/01/04 00:32:09;;;;;;;3.90;1.20;;;9.50;99.90;;;;;;5045853;28;20021;-87
2024/01/04 00:34:35;;;;;;;5.00;1.27;;;9.60;99.90;;;;;;5044114;28;20497;-87
2024/01/04 00:37:02;;;;;;;3.17;0.82;;;9.50;99.90;;;;;;5036741;28;20049;-88
2024/01/04 00:39:27;;;;;;;4.50;0.60;;;9.50;99.90;;;;;;5035993;28;20022;-88
2024/01/04 00:41:53;;;;;;;3.05;0.77;;;9.50;99.90;;;;;;5036386;28;20429;-88
2024/01/04 00:44:19;;;;;;;1.02;0.68;;;9.50;99.90;;;;;;5041008;28;20029;-88
2024/01/04 00:46:44;;;;;;;1.63;0.77;;;9.50;99.90;;;;;;5040791;28;20025;-88
2024/01/04 00:49:10;;;;;;;0.88;0.60;;;9.50;99.90;;;;;;5041045;28;20029;-88
2024/01/04 00:51:36;;;;;;;1.75;0.50;;;9.50;99.90;;;;;;5045757;28;20029;-88
2024/01/04 00:54:02;;;;;;;7.40;1.05;;;9.50;99.90;;;;;;5036204;28;20075;-87
2024/01/04 00:56:34;;;;;;;1.02;0.68;;;9.50;99.90;;;;;;5037139;28;20025;-87
2024/01/04 00:59:00;;;;;;;3.55;0.90;;;9.50;99.90;;;;;;5037413;28;20017;-89
2024/01/04 01:01:26;;;;;;;2.92;0.82;;;9.50;99.90;;;;;;5036909;28;20025;-88
2024/01/04 01:03:52;;;;;;;7.00;0.85;;;9.50;99.90;;;;;;5041704;28;20394;-89
2024/01/04 01:06:17;;;;;;;2.08;0.95;;;9.50;99.90;;;;;;5040876;28;20486;-88
2024/01/04 01:08:43;;;;;;;1.80;0.75;;;9.50;99.90;;;;;;5045350;28;20611;-87
2024/01/04 01:11:08;;;;;;;2.63;0.73;;;9.50;99.90;;;;;;5038539;28;20573;-88
2024/01/04 01:13:34;;;;;;;1.48;0.60;;;9.50;99.90;;;;;;5043120;28;20116;-88
2024/01/04 01:16:00;;;;;;;1.58;0.77;;;9.50;99.90;;;;;;5036698;28;20025;-87
2024/01/04 01:18:26;;;;;;;4.00;0.65;;;9.50;99.90;;;;;;5036629;28;20115;-88
2024/01/04 01:20:52;;;;;;;0.68;0.43;;;9.50;99.90;;;;;;5040954;28;20104;-88
2024/01/04 01:23:17;;;;;;;1.90;0.88;;;9.50;99.90;;;;;;5042111;28;20021;-88
2024/01/04 01:25:43;;;;;;;1.95;1.52;;;9.50;99.90;;;;;;5040251;28;20491;-88
2024/01/04 01:28:09;;;;;;;0.40;0.40;;;9.50;99.90;;;;;;5039685;28;20021;-87
2024/01/04 01:30:34;;;;;;;1.55;0.60;;;9.50;99.90;;;;;;5044784;28;20044;-87
2024/01/04 01:33:00;;;;;;;1.40;0.82;;;9.50;99.90;;;;;;5052276;28;20487;-87
2024/01/04 01:35:25;;;;;;;1.92;0.55;;;9.50;99.90;;;;;;5047664;28;20047;-87
2024/01/04 01:37:51;;;;;;;3.13;0.68;;;9.40;99.90;;;;;;5045390;28;20013;-87
2024/01/04 01:40:16;;;;;;;2.17;0.93;;;9.50;99.90;;;;;;5039568;28;20383;-87
2024/01/04 01:42:47;;;;;;;2.10;1.00;;;9.50;99.90;;;;;;5046211;28;20025;-86
2024/01/04 01:45:12;;;;;;;2.03;0.75;;;9.50;99.90;;;;;;5039770;28;20022;-87
2024/01/04 01:47:39;;;;;;;1.02;0.70;;;9.50;99.90;;;;;;5038584;28;20024;-88
2024/01/04 01:50:07;;;;;;;2.92;0.90;;;9.50;99.90;;;;;;5041700;28;20021;-87
2024/01/04 01:52:34;;;;;;;1.00;0.65;;;9.50;99.90;;;;;;5042546;28;20057;-88
2024/01/04 01:55:00;;;;;;;1.15;0.60;;;9.50;99.90;;;;;;5042929;28;20084;-87
2024/01/04 01:57:27;;;;;;;0.63;0.52;;;9.50;99.90;;;;;;5036745;28;20095;-87
2024/01/04 01:59:53;;;;;;;1.88;0.77;;;9.50;99.90;;;;;;5042561;28;20024;-88
2024/01/04 02:02:19;;;;;;;5.95;0.95;;;9.50;99.90;;;;;;5042280;28;20386;-87
2024/01/04 02:04:45;;;;;;;3.55;0.80;;;9.50;99.90;;;;;;5042885;28;20021;-88
2024/01/04 02:07:10;;;;;;;6.50;0.88;;;9.50;99.90;;;;;;5043427;28;20018;-88
2024/01/04 02:09:36;;;;;;;1.65;1.02;;;9.50;99.90;;;;;;5044148;28;20021;-87
2024/01/04 02:12:06;;;;;;;6.25;0.77;;;9.50;99.90;;;;;;5046462;28;20043;-89
2024/01/04 02:14:32;;;;;;;2.65;0.50;;;9.50;99.90;;;;;;5047317;28;20382;-88
2024/01/04 02:16:58;;;;;;;0.77;0.63;;;9.50;99.90;;;;;;5041773;28;20032;-87
2024/01/04 02:19:26;;;;;;;2.05;0.73;;;9.50;99.90;;;;;;5044709;28;20021;-88
2024/01/04 02:21:51;;;;;;;2.20;0.73;;;9.50;99.90;;;;;;5041264;28;20028;-88
2024/01/04 02:24:17;;;;;;;2.65;0.75;;;9.50;99.90;;;;;;5037002;28;20018;-89
2024/01/04 02:26:42;;;;;;;2.80;0.55;;;9.50;99.90;;;;;;5039814;28;20055;-89
2024/01/04 02:29:08;;;;;;;0.75;0.60;;;9.50;99.90;;;;;;5040740;28;20399;-88
2024/01/04 02:31:33;;;;;;;2.92;0.93;;;9.50;99.90;;;;;;5038589;28;20487;-88
2024/01/04 02:33:59;;;;;;;1.55;0.60;;;9.50;99.90;;;;;;5038864;28;20746;-87
2024/01/04 02:36:25;;;;;;;1.83;0.75;;;9.50;99.90;;;;;;5037517;28;20135;-87
2024/01/04 02:38:51;;;;;;;3.63;0.52;;;9.50;99.90;;;;;;5041027;28;20382;-90
2024/01/04 02:41:16;;;;;;;0.50;0.50;;;9.50;99.90;;;;;;5040302;28;20478;-87
2024/01/04 02:43:42;;;;;;;1.98;0.77;;;9.40;99.90;;;;;;5043644;28;20025;-87
2024/01/04 02:46:07;;;;;;;0.63;0.50;;;9.50;99.90;;;;;;5044864;28;20079;-87
2024/01/04 02:48:33;;;;;;;2.22;1.17;;;9.50;99.90;;;;;;5044841;28;20024;-87
2024/01/04 02:50:58;;;;;;;4.10;1.35;;;9.50;99.90;;;;;;5038633;28;20071;-87
2024/01/04 02:53:24;;;;;;;4.88;1.25;;;9.50;99.90;;;;;;5043191;28;20017;-86
2024/01/04 02:55:50;;;;;;;5.13;0.68;;;9.50;99.90;;;;;;5046170;28;20016;-88
2024/01/04 02:58:15;;;;;;;1.83;0.65;;;9.50;99.90;;;;;;5043720;28;20017;-87
2024/01/04 03:00:41;;;;;;;1.90;0.70;;;9.50;99.90;;;;;;5045867;28;20541;-88
2024/01/04 03:03:06;;;;;;;2.22;0.73;;;9.50;99.90;;;;;;5044884;28;20024;-87
2024/01/04 03:05:32;;;;;;;1.75;0.60;;;9.50;99.90;;;;;;5042217;28;20071;-87
2024/01/04 03:07:58;;;;;;;3.33;1.00;;;9.50;99.90;;;;;;5042345;28;20025;-87
2024/01/04 03:10:24;;;;;;;1.27;0.82;;;9.40;99.90;;;;;;5043068;28;20025;-88
2024/01/04 03:12:49;;;;;;;3.42;1.08;;;9.40;99.90;;;;;;5048425;28;20490;-87
2024/01/04 03:15:15;;;;;;;7.72;1.13;;;9.50;99.90;;;;;;5039655;28;20483;-87
2024/01/04 03:17:40;;;;;;;3.70;0.60;;;9.50;99.90;;;;;;5034045;28;20026;-88
2024/01/04 03:20:06;;;;;;;6.55;1.00;;;9.40;99.90;;;;;;5039093;28;20017;-87
2024/01/04 03:22:32;;;;;;;1.48;1.08;;;9.50;99.90;;;;;;5037125;28;20046;-87
2024/01/04 03:24:58;;;;;;;5.35;0.80;;;9.50;99.90;;;;;;5038900;28;20061;-89
2024/01/04 03:27:23;;;;;;;4.47;0.80;;;9.40;99.90;;;;;;5041150;28;20029;-87
2024/01/04 03:29:50;;;;;;;3.80;0.80;;;9.50;99.90;;;;;;5043701;28;20025;-87
2024/01/04 03:32:16;;;;;;;4.78;1.40;;;9.50;99.90;;;;;;5038671;28;20041;-87
2024/01/04 03:34:41;;;;;;;1.15;0.88;;;9.50;99.90;;;;;;5040676;28;20495;-88
2024/01/04 03:37:07;;;;;;;2.55;0.73;;;9.50;99.90;;;;;;5037574;28;20029;-88
2024/01/04 03:39:32;;;;;;;2.38;0.70;;;9.50;99.90;;;;;;5040460;28;20151;-88
2024/01/04 03:41:58;;;;;;;4.88;0.95;;;9.50;99.90;;;;;;5037029;28;20021;-87
2024/01/04 03:44:23;;;;;;;2.67;0.80;;;9.50;99.90;;;;;;5045852;28;20033;-87
2024/01/04 03:46:49;;;;;;;1.92;0.73;;;9.50;99.90;;;;;;5038669;28;20023;-86
2024/01/04 03:49:14;;;;;;;4.50;0.70;;;9.50;99.90;;;;;;5038603;28;20068;-88
2024/01/04 03:51:40;;;;;;;5.63;0.85;;;9.40;99.90;;;;;;5052615;28;20033;-87
2024/01/04 03:54:05;;;;;;;1.67;0.98;;;9.50;99.90;;;;;;5044810;28;20033;-87
2024/01/04 03:56:32;;;;;;;0.73;0.55;;;9.50;99.90;;;;;;5031797;28;20021;-87
2024/01/04 03:58:57;;;;;;;3.72;0.70;;;9.50;99.90;;;;;;5038298;28;20017;-87
2024/01/04 04:01:23;;;;;;;0.50;0.50;;;9.50;99.90;;;;;;5038821;28;20108;-87
2024/01/04 04:03:48;;;;;;;2.28;0.77;;;9.50;99.90;;;;;;5042177;28;20021;-86
2024/01/04 04:06:18;;;;;;;2.17;0.80;;;9.50;99.90;;;;;;5039890;28;20028;-88
2024/01/04 04:08:43;;;;;;;1.33;0.70;;;9.50;99.90;;;;;;5038466;28;20091;-88
2024/01/04 04:11:18;;;;;;;3.20;0.60;;;9.50;99.90;;;;;;5038770;28;20034;-87
2024/01/04 04:13:44;;;;;;;0.65;0.65;;;9.50;99.90;;;;;;5042536;28;20029;-87
2024/01/04 04:16:09;;;;;;;0.85;0.80;;;9.50;99.90;;;;;;5037206;28;20109;-87
2024/01/04 04:18:35;;;;;;;1.95;0.70;;;9.50;99.90;;;;;;5041804;28;20025;-88
2024/01/04 04:21:01;;;;;;;0.98;0.70;;;9.50;99.90;;;;;;5041724;28;20483;-88
2024/01/04 04:23:27;;;;;;;3.05;0.68;;;9.50;99.90;;;;;;5041511;28;20025;-88
2024/01/04 04:25:53;;;;;;;3.60;0.73;;;9.40;99.90;;;;;;5041369;28;20021;-87
2024/01/04 04:28:19;;;;;;;0.95;0.60;;;9.40;99.90;;;;;;5041169;28;20538;-88
2024/01/04 04:30:44;;;;;;;0.93;0.50;;;9.50;99.90;;;;;;5042307;28;20091;-88
2024/01/04 04:33:10;;;;;;;0.70;0.50;;;9.40;99.90;;;;;;5043195;28;20033;-88
2024/01/04 04:35:35;;;;;;;0.50;0.50;;;9.40;99.90;;;;;;5045494;28;20115;-87
2024/01/04 04:38:01;;;;;;;1.77;0.70;;;9.40;99.90;;;;;;5036647;28;20022;-88
2024/01/04 04:40:26;;;;;;;2.58;0.43;;;9.40;99.90;;;;;;5036956;28;20082;-87
2024/01/04 04:42:52;;;;;;;0.75;0.60;;;9.40;99.90;;;;;;5039404;28;20021;-87
2024/01/04 04:45:17;;;;;;;0.50;0.50;;;9.40;99.90;;;;;;5037085;28;20026;-88
2024/01/04 04:47:43;;;;;;;1.85;0.60;;;9.40;99.90;;;;;;5038025;28;20033;-88
2024/01/04 04:50:09;;;;;;;1.65;0.40;;;9.40;99.90;;;;;;5053050;28;20025;-87
2024/01/04 04:52:34;;;;;;;1.65;0.60;;;9.40;99.90;;;;;;5042600;28;20398;-88
2024/01/04 04:55:00;;;;;;;1.65;0.40;;;9.40;99.90;;;;;;5044574;28;20047;-87
2024/01/04 04:57:26;;;;;;;0.40;0.40;;;9.40;99.90;;;;;;5043699;28;20018;-87
2024/01/04 04:59:51;;;;;;;2.05;0.50;;;9.40;99.90;;;;;;5037298;28;20017;-89
2024/01/04 05:02:17;;;;;;;3.92;0.68;;;9.40;99.90;;;;;;5039063;28;20071;-87
2024/01/04 05:04:43;;;;;;;0.50;0.50;;;9.40;99.90;;;;;;5051644;28;20017;-88
2024/01/04 05:07:09;;;;;;;1.05;0.60;;;9.40;99.90;;;;;;5044467;28;20483;-88
2024/01/04 05:09:35;;;;;;;0.43;0.43;;;9.40;99.90;;;;;;5037368;28;20104;-88
2024/01/04 05:12:00;;;;;;;1.00;0.60;;;9.40;99.90;;;;;;5051405;28;20073;-88
2024/01/04 05:14:26;;;;;;;0.98;0.50;;;9.40;99.90;;;;;;5042814;28;20465;-88
2024/01/04 05:16:51;;;;;;;2.17;0.52;;;9.40;99.90;;;;;;5043168;28;20108;-88
2024/01/04 05:19:17;;;;;;;0.40;0.40;;;9.40;99.90;;;;;;5039646;28;20021;-87
2024/01/04 05:21:42;;;;;;;3.33;1.13;;;9.40;99.90;;;;;;5043398;28;20666;-87
2024/01/04 05:24:08;;;;;;;0.50;0.50;;;9.40;99.90;;;;;;5043118;28;20021;-87
2024/01/04 05:26:33;;;;;;;2.78;0.77;;;9.40;99.90;;;;;;5041063;28;20075;-86
2024/01/04 05:28:59;;;;;;;12.88;0.55;;;9.40;99.90;;;;;;5042332;28;20021;-87
2024/01/04 05:31:25;;;;;;;1.17;0.50;;;9.40;99.90;;;;;;5041362;28;20033;-87
2024/01/04 05:33:51;;;;;;;1.25;0.60;;;9.40;99.90;;;;;;5042918;28;20017;-88
2024/01/04 05:36:17;;;;;;;0.47;0.47;;;9.40;99.90;;;;;;5042572;28;20021;-87
2024/01/04 05:38:42;;;;;;;1.67;0.75;;;9.40;99.90;;;;;;5049517;28;20036;-88
2024/01/04 05:41:08;;;;;;;0.63;0.63;;;9.40;99.90;;;;;;5041902;28;20024;-87
2024/01/04 05:43:34;;;;;;;1.20;0.68;;;9.40;99.90;;;;;;5038266;28;20522;-87
2024/01/04 05:46:03;;;;;;;2.83;0.45;;;9.40;99.90;;;;;;5051563;28;20032;-88
2024/01/04 05:48:29;;;;;;;2.80;0.65;;;9.40;99.90;;;;;;5046313;28;20024;-86
2024/01/04 05:50:54;;;;;;;5.15;0.77;;;9.40;99.90;;;;;;5044789;28;20029;-87
2024/01/04 05:53:20;;;;;;;0.68;0.68;;;9.40;99.90;;;;;;5041295;28;20025;-89
2024/01/04 05:55:45;;;;;;;0.77;0.77;;;9.40;99.90;;;;;;5040577;28;20160;-88
2024/01/04 05:58:11;;;;;;;1.27;0.63;;;9.40;99.90;;;;;;5042970;28;20017;-87
2024/01/04 06:00:37;;;;;;;2.85;0.88;;;9.40;99.90;;;;;;5041010;28;20024;-87
2024/01/04 06:03:03;;;;;;;1.35;0.60;;;9.40;99.90;;;;;;5035896;28;20037;-88
2024/01/04 06:05:29;;;;;;;1.67;0.63;;;9.40;99.90;;;;;;5046180;28;20021;-87
2024/01/04 06:07:55;;;;;;;5.95;1.10;;;9.40;99.90;;;;;;5040581;28;20255;-88
2024/01/04 06:10:20;;;;;;;1.00;0.50;;;9.40;99.90;;;;;;5046080;28;20017;-88
2024/01/04 06:12:46;;;;;;;3.20;0.70;;;9.40;99.90;;;;;;5044125;28;20486;-87
2024/01/04 06:15:11;;;;;;;3.08;0.57;;;9.40;99.90;;;;;;5039862;28;20029;-87
2024/01/04 06:17:37;;;;;;;2.40;0.60;;;9.40;99.90;;;;;;5044025;28;20094;-89
2024/01/04 06:20:03;;;;;;;3.03;0.95;;;9.40;99.90;;;;;;5041895;28;20437;-88
2024/01/04 06:22:28;;;;;;;4.00;0.85;;;9.40;99.90;;;;;;5033021;28;20067;-87
2024/01/04 06:24:54;;;;;;;3.50;0.50;;;9.40;99.90;;;;;;5039495;28;20398;-88
2024/01/04 06:27:19;;;;;;;3.33;0.85;;;9.40;99.90;;;;;;5037646;28;20450;-88
2024/01/04 06:29:45;;;;;;;3.70;0.80;;;9.40;99.90;;;;;;5041430;28;20021;-87
2024/01/04 06:32:11;;;;;;;1.10;0.80;;;9.40;99.90;;;;;;5049247;28;20534;-87
2024/01/04 06:34:36;;;;;;;0.40;0.40;;;9.40;99.90;;;;;;5037563;28;20040;-87
2024/01/04 06:37:02;;;;;;;1.55;0.63;;;9.40;99.90;;;;;;5047062;28;20124;-87
2024/01/04 06:39:28;;;;;;;4.32;0.70;;;9.40;99.90;;;;;;5048779;28;20032;-87
2024/01/04 06:41:54;;;;;;;0.90;0.70;;;9.40;99.90;;;;;;5058232;28;20036;-88
2024/01/04 06:44:20;;;;;;;3.72;0.75;;;9.40;99.90;;;;;;5043193;28;20021;-87
2024/01/04 06:46:45;;;;;;;4.53;0.50;;;9.40;99.90;;;;;;5035561;28;20022;-87
2024/01/04 06:49:11;;;;;;;0.50;0.50;;;9.40;99.90;;;;;;5043754;28;20017;-88
2024/01/04 06:51:36;;;;;;;2.22;0.82;;;9.40;99.90;;;;;;5040005;28;20040;-88
2024/01/04 06:54:02;;;;;;;3.42;0.85;;;9.40;99.90;;;;;;5039629;28;20448;-87
2024/01/04 06:56:28;;;;;;;1.50;0.70;;;9.30;99.90;;;;;;5042942;28;20033;-86
2024/01/04 06:58:54;;;;;;;1.58;0.80;;;9.40;99.90;;;;;;5035379;28;20035;-87
2024/01/04 07:01:20;;;;;;;0.63;0.50;;;9.40;99.90;;;;;;5036555;28;20052;-85
2024/01/04 07:03:46;;;;;;;3.00;0.73;;;9.30;99.90;;;;;;5034239;28;20045;-86
2024/01/04 07:06:13;;;;;;;0.57;0.57;;;9.40;99.90;;;;;;5034755;28;20397;-86
2024/01/04 07:08:38;;;;;;;1.92;0.70;;;9.30;99.90;;;;;;5036795;28;20018;-87
2024/01/04 07:11:05;;;;;;;2.38;1.55;;;9.30;99.90;;;;;;5035975;28;20576;-86
2024/01/04 07:13:32;;;;;;;1.05;0.60;;;9.30;99.90;;;;;;5033790;28;20017;-88
2024/01/04 07:15:58;;;;;;;1.80;0.75;;;9.30;99.90;;;;;;5040236;28;20034;-86
2024/01/04 07:18:23;;;;;;;3.10;0.77;;;9.30;99.90;;;;;;5037378;28;20550;-87
2024/01/04 07:20:49;;;;;;;6.18;0.70;;;9.40;99.90;;;;;;5033619;28;20022;-86
2024/01/04 07:23:15;;;;;;;3.55;0.50;;;9.30;99.90;;;;;;5042779;28;20474;-86
2024/01/04 07:25:40;;;;;;;2.75;0.60;;;9.30;99.90;;;;;;5042768;28;20384;-87
2024/01/04 07:28:06;;;;;;;2.13;0.70;;;9.30;99.90;;;;;;5040221;28;20028;-86
2024/01/04 07:30:31;;;;;;;1.27;0.80;;;9.30;99.90;;;;;;5041052;28;20112;-87
2024/01/04 07:32:57;;;;;;;5.57;1.02;;;9.40;99.90;;;;;;5036987;28;20129;-86
2024/01/04 07:35:23;;;;;;;6.13;0.98;;;9.30;99.90;;;;;;5037215;28;20536;-86
2024/01/04 07:37:49;;;;;;;4.47;0.88;;;9.30;99.90;;;;;;5035359;28;20075;-86
2024/01/04 07:40:14;;;;;;;2.80;0.80;;;9.40;99.90;;;;;;5034187;28;20108;-87
2024/01/04 07:42:40;;;;;;;2.65;0.60;;;9.30;99.90;;;;;;5041118;28;20032;-86
2024/01/04 07:45:06;;;;;;;0.43;0.43;;;9.30;99.90;;;;;;5030029;28;20022;-87
2024/01/04 07:47:32;;;;;;;0.88;0.50;;;9.30;99.90;;;;;;5045621;28;20032;-89
2024/01/04 07:49:57;;;;;;;3.80;0.75;;;9.40;99.90;;;;;;5036828;28;20051;-86
2024/01/04 07:52:23;;;;;;;6.10;0.75;;;9.40;99.90;;;;;;5044570;28;20028;-86
2024/01/04 07:54:49;;;;;;;1.65;0.93;;;9.40;99.90;;;;;;5041801;28;20108;-86
2024/01/04 07:57:14;;;;;;;0.57;0.52;;;9.40;99.90;;;;;;5033945;28;20036;-86
2024/01/04 07:59:40;;;;;;;1.30;0.70;;;9.40;99.90;;;;;;5057240;28;20032;-87
2024/01/04 08:02:05;;;;;;;1.17;0.75;;;9.40;99.90;;;;;;5041628;28;20028;-87
2024/01/04 08:04:32;;;;;;;3.42;0.52;;;9.40;99.90;;;;;;5039455;28;20035;-88
2024/01/04 08:06:57;;;;;;;3.80;0.95;;;9.40;99.90;;;;;;5035465;28;20013;-88
2024/01/04 08:09:23;;;;;;;1.05;0.70;;;9.40;99.90;;;;;;5038572;28;20021;-86
2024/01/04 08:11:49;;;;;;;0.75;0.68;;;9.40;99.90;;;;;;5036433;28;20079;-87
2024/01/04 08:14:15;;;;;;;0.70;0.50;;;9.40;99.90;;;;;;5041277;28;20021;-86
2024/01/04 08:16:41;;;;;;;1.70;0.65;;;9.40;99.90;;;;;;5042378;28;20496;-88
2024/01/04 08:19:06;;;;;;;1.63;0.63;;;9.40;99.90;;;;;;5038342;28;20025;-87
2024/01/04 08:21:32;;;;;;;5.97;0.80;;;9.40;99.90;;;;;;5032180;28;20029;-88
2024/01/04 08:23:57;;;;;;;1.23;0.60;;;9.40;99.90;;;;;;5039740;28;20029;-86
2024/01/04 08:26:24;;;;;;;0.50;0.50;;;9.40;99.90;;;;;;5038814;28;20044;-87
2024/01/04 08:28:49;;;;;;;0.52;0.50;;;9.40;99.90;;;;;;5049008;28;20017;-87
2024/01/04 08:31:15;;;;;;;0.80;0.60;;;9.40;99.90;;;;;;5034907;28;20074;-87
2024/01/04 08:33:41;;;;;;;1.77;1.42;;;9.40;99.90;;;;;;5038022;28;20614;-87
2024/01/04 08:36:08;;;;;;;1.17;0.57;;;9.40;99.90;;;;;;5038488;28;20025;-87
2024/01/04 08:38:34;;;;;;;2.03;0.68;;;9.40;99.90;;;;;;5042348;28;20025;-89
2024/01/04 08:41:00;;;;;;;1.08;0.60;;;9.40;99.90;;;;;;5032295;28;20690;-87
2024/01/04 08:43:26;;;;;;;5.03;0.80;;;9.40;99.90;;;;;;5036717;28;20022;-86
2024/01/04 08:45:51;;;;;;;0.63;0.63;;;9.50;99.90;;;;;;5038162;28;20544;-87
2024/01/04 08:48:17;;;;;;;0.68;0.57;;;9.50;99.90;;;;;;5040395;28;20040;-86
2024/01/04 08:50:42;;;;;;;2.72;0.60;;;9.50;99.90;;;;;;5033428;28;20024;-86
2024/01/04 08:53:08;;;;;;;3.00;2.10;;;9.50;99.90;;;;;;5039236;28;20025;-86
2024/01/04 08:55:34;;;;;;;1.10;0.65;;;9.60;99.90;;;;;;5036978;28;20044;-88
2024/01/04 08:57:59;;;;;;;1.25;0.60;;;9.60;99.90;;;;;;5037983;28;20025;-87
2024/01/04 09:00:25;;;;;;;1.58;0.70;;;9.60;99.90;;;;;;5040543;28;20485;-87
2024/01/04 09:02:50;;;;;;;1.25;0.70;;;9.60;99.90;;;;;;5038581;28;20472;-87
2024/01/04 09:05:16;;;;;;;1.10;0.80;;;9.60;99.90;;;;;;5039781;28;20036;-86
2024/01/04 09:07:41;;;;;;;1.25;0.82;;;9.60;99.90;;;;;;5034064;28;20079;-88
2024/01/04 09:10:08;;;;;;;4.43;1.40;;;9.60;99.90;;;;;;5038940;28;20063;-88
2024/01/04 09:12:33;;;;;;;7.40;1.05;;;9.60;99.90;;;;;;5037687;28;20047;-87
2024/01/04 09:14:59;;;;;;;0.55;0.55;;;9.60;99.90;;;;;;5040537;28;20021;-87
2024/01/04 09:17:25;;;;;;;1.65;0.70;;;9.60;99.90;;;;;;5031232;28;20013;-87
2024/01/04 09:19:51;;;;;;;1.27;0.80;;;9.60;99.90;;;;;;5034574;28;20052;-89
2024/01/04 09:22:17;;;;;;;1.25;0.90;;;9.60;99.90;;;;;;5030839;28;20053;-87
2024/01/04 09:24:42;;;;;;;2.90;0.90;;;9.50;99.90;;;;;;5039118;28;20028;-87
2024/01/04 09:27:08;;;;;;;2.92;0.93;;;9.50;99.90;;;;;;5037316;28;20055;-87
2024/01/04 09:29:34;;;;;;;3.17;1.20;;;9.50;99.90;;;;;;5041820;28;20017;-87
2024/01/04 09:32:01;;;;;;;1.58;1.10;;;9.50;99.90;;;;;;5032491;28;20083;-86
2024/01/04 09:34:27;;;;;;;7.97;1.30;;;9.50;99.90;;;;;;5042726;28;20025;-87
2024/01/04 09:36:54;;;;;;;2.13;1.00;;;9.50;99.90;;;;;;5031208;28;20029;-86
2024/01/04 09:39:20;;;;;;;2.50;1.00;;;9.60;99.90;;;;;;5046125;28;20079;-87
2024/01/04 09:41:47;;;;;;;3.70;1.42;;;9.70;99.90;;;;;;5033489;28;20045;-88
2024/01/04 09:44:14;;;;;;;3.72;1.50;;;9.70;99.90;;;;;;5039439;28;20032;-87
2024/01/04 09:46:40;;;;;;;6.93;1.48;;;9.80;99.90;;;;;;5039636;28;20028;-87
2024/01/04 09:49:07;;;;;;;10.95;4.03;;;9.80;99.90;;;;;;5041463;28;20030;-87
2024/01/04 09:51:37;;;;;;;8.48;2.90;;;9.80;99.90;;;;;;5046240;28;20616;-88
2024/01/04 09:54:03;;;;;;;7.70;3.10;;;9.80;99.90;;;;;;5043292;28;20721;-86
2024/01/04 09:56:32;;;;;;;8.40;2.72;;;9.70;99.90;;;;;;5043046;28;20445;-86
2024/01/04 09:58:58;;;;;;;13.38;2.92;;;9.70;99.90;;;;;;5039870;28;20510;-85
2024/01/04 10:01:30;;;;;;;10.25;2.50;;;9.70;99.90;;;;;;5049328;28;20428;-88
2024/01/04 10:04:00;;;;;;;5.85;2.03;;;9.70;99.90;;;;;;5044241;28;20116;-88
2024/01/04 10:06:32;;;;;;;4.27;2.20;;;9.70;99.90;;;;;;5040966;28;20032;-88
2024/01/04 10:09:15;;;;;;;11.20;2.45;;;9.60;99.90;;;;;;5043570;28;20033;-86
2024/01/04 10:11:56;;;;;;;7.93;2.58;;;9.60;99.90;;;;;;5043636;28;20108;-87
2024/01/04 10:14:26;;;;;;;10.05;2.42;;;9.60;99.90;;;;;;5042032;28;20032;-87
2024/01/04 10:16:52;;;;;;;;;;;9.60;99.90;;;;;;5036564;28;20053;-87
2024/01/04 10:19:18;;;;;;;5.95;2.28;;;9.60;99.90;;;;;;5042034;28;20485;-85
2024/01/04 10:21:44;;;;;;;10.07;3.15;;;9.70;99.90;;;;;;5036693;28;20020;-87
2024/01/04 10:24:19;;;;;;;15.63;3.47;;;9.70;99.90;;;;;;5032529;28;20030;-86
2024/01/04 10:26:57;;;;;;;12.95;3.67;;;9.70;99.90;;;;;;5037430;28;20029;-87
2024/01/04 10:29:23;;;;;;;11.27;3.63;;;9.70;99.90;;;;;;5036077;28;20487;-85
2024/01/04 10:32:02;;;;;;;12.57;3.22;;;9.70;99.90;;;;;;5036988;28;20032;-88
2024/01/04 10:34:29;;;;;;;8.73;2.53;;;9.70;99.90;;;;;;5034939;28;20061;-92
2024/01/04 10:37:06;;;;;;;14.52;4.05;;;9.80;99.90;;;;;;5047310;28;20033;-91
2024/01/04 10:39:31;;;;;;;9.88;2.95;;;9.80;99.90;;;;;;5046385;28;20495;-92
2024/01/04 10:42:01;;;;;;;7.45;2.45;;;9.80;99.90;;;;;;5053704;28;20017;-92
2024/01/04 10:44:28;;;;;;;5.85;1.92;;;9.80;99.90;;;;;;5051779;28;20589;-92
2024/01/04 10:46:57;;;;;;;13.27;2.42;;;9.70;99.90;;;;;;5053587;28;20526;-94
2024/01/04 10:49:24;;;;;;;10.32;2.40;;;9.70;99.90;;;;;;5043472;28;20018;-92
2024/01/04 10:51:57;;;;;;;6.03;2.50;;;9.70;99.90;;;;;;5032727;28;20030;-91
2024/01/04 10:54:33;;;;;;;12.55;3.33;;;9.70;99.90;;;;;;5049418;28;20108;-88
2024/01/04 10:57:03;;;;;;;6.85;3.17;;;9.70;99.90;;;;;;5045124;28;20501;-89
2024/01/04 10:59:31;;;;;;;10.80;3.95;;;9.70;99.90;;;;;;5041516;28;20029;-89
2024/01/04 11:02:00;;;;;;;5.82;2.53;;;9.70;99.90;;;;;;5032854;28;20040;-89
2024/01/04 11:04:28;;;;;;;8.50;2.65;;;9.70;99.90;;;;;;5032420;28;20025;-88
2024/01/04 11:06:55;;;;;;;9.07;2.40;;;9.60;99.90;;;;;;5035451;28;20026;-89
2024/01/04 11:09:22;;;;;;;8.27;2.15;;;9.60;99.90;;;;;;5046393;28;20111;-89
2024/01/04 11:11:54;;;;;;;5.18;2.10;;;9.60;99.90;;;;;;5045995;28;20013;-89
2024/01/04 11:14:20;;;;;;;3.13;1.70;;;9.70;99.90;;;;;;5041835;28;20105;-89
2024/01/04 11:16:52;;;;;;;6.07;2.25;;;9.70;99.90;;;;;;5034674;28;20056;-90
2024/01/04 11:19:32;;;;;;;5.78;1.90;;;9.80;99.90;;;;;;5051194;28;20025;-89
2024/01/04 11:22:16;;;;;;;;;;;9.90;99.90;;;;;;5051792;28;20024;-89
2024/01/04 11:25:06;;;;;;;11.07;2.30;;;10.00;99.90;;;;;;5070043;28;19991;-90
2024/01/04 11:27:32;;;;;;;5.97;2.30;;;10.00;99.90;;;;;;5050116;28;20056;-88
2024/01/04 11:29:59;;;;;;;7.40;1.80;;;10.00;99.90;;;;;;5038688;28;20029;-90
2024/01/04 11:32:25;;;;;;;6.13;2.05;;;10.10;99.90;;;;;;5038597;28;20474;-89
2024/01/04 11:34:51;;;;;;;4.75;1.80;;;10.00;99.90;;;;;;5050529;28;20097;-90
2024/01/04 11:37:19;;;;;;;6.32;2.63;;;10.00;99.90;;;;;;5042958;28;20013;-89
2024/01/04 11:40:05;;;;;;;10.75;2.65;;;10.00;99.90;;;;;;5049949;28;20043;-88
2024/01/04 11:42:40;;;;;;;9.98;2.70;;;9.90;99.90;;;;;;5042458;28;20017;-90
2024/01/04 11:45:15;;;;;;;8.82;2.42;;;10.00;99.90;;;;;;5042565;28;20021;-88
2024/01/04 11:47:44;;;;;;;6.25;2.30;;;10.00;99.90;;;;;;5035601;28;20040;-88
2024/01/04 11:50:17;;;;;;;7.68;3.30;;;10.10;99.90;;;;;;5050304;28;20111;-88
2024/01/04 11:52:45;;;;;;;7.07;2.88;;;10.10;99.90;;;;;;5041999;28;20029;-88
2024/01/04 11:55:12;;;;;;;5.85;2.13;;;10.00;99.90;;;;;;5043891;28;20132;-90
2024/01/04 11:57:39;;;;;;;9.77;2.58;;;9.90;99.90;;;;;;5040483;28;20025;-89
2024/01/04 12:00:13;;;;;;;9.27;2.75;;;9.90;99.90;;;;;;5052933;28;20403;-88
2024/01/04 12:02:38;;;;;;;5.93;2.05;;;9.90;99.90;;;;;;5045084;28;20021;-88
2024/01/04 12:05:05;;;;;;;11.90;2.50;;;9.90;99.90;;;;;;5054211;28;20035;-88
2024/01/04 12:07:34;;;;;;;8.88;2.13;;;9.80;99.90;;;;;;5050327;28;20056;-89
2024/01/04 12:10:00;;;;;;;6.40;2.15;;;9.80;99.90;;;;;;5038095;28;20048;-89
2024/01/04 12:12:26;;;;;;;8.82;2.15;;;9.80;99.90;;;;;;5040202;28;20029;-87
2024/01/04 12:14:52;;;;;;;5.70;1.73;;;9.80;99.90;;;;;;5044946;28;20116;-90
2024/01/04 12:17:18;;;;;;;6.40;1.98;;;9.80;99.90;;;;;;5040863;28;20017;-91
2024/01/04 12:19:43;;;;;;;6.57;2.00;;;9.80;99.90;;;;;;5051453;28;20024;-87
2024/01/04 12:22:10;;;;;;;7.78;2.00;;;9.80;99.90;;;;;;5044460;28;20025;-88
2024/01/04 12:24:38;;;;;;;6.05;1.63;;;9.80;99.90;;;;;;5044551;28;20029;-88
2024/01/04 12:27:04;;;;;;;4.72;1.50;;;9.80;99.90;;;;;;5045938;28;20416;-87
2024/01/04 12:29:29;;;;;;;3.95;1.63;;;9.80;99.90;;;;;;5047102;28;20143;-87
2024/01/04 12:31:55;;;;;;;7.93;1.83;;;9.80;99.90;;;;;;5038460;28;20033;-89
2024/01/04 12:34:21;;;;;;;6.97;1.75;;;9.80;99.90;;;;;;5048928;28;20017;-90
2024/01/04 12:36:47;;;;;;;26.55;7.75;;;9.80;99.90;;;;;;5047952;28;20033;-89
2024/01/04 12:39:13;;;;;;;72.20;21.73;;;10.20;99.90;;;;;;5045278;28;20032;-89
2024/01/04 12:41:43;;;;;;;49.60;17.92;;;10.00;99.90;;;;;;5047095;28;20022;-87
2024/01/04 12:44:09;;;;;;;48.80;15.73;;;9.90;99.90;;;;;;5048394;28;20056;-91
2024/01/04 12:46:35;;;;;;;41.78;13.10;;;9.90;99.90;;;;;;5040740;28;20033;-90
2024/01/04 12:49:08;;;;;;;32.80;12.70;;;9.80;99.90;;;;;;5051370;28;20021;-89
2024/01/04 12:51:38;;;;;;;28.58;10.10;;;9.80;99.90;;;;;;5038003;28;20056;-89